createdAt,value
2023-12-12T00:04:31.247Z,99
2023-12-12T00:09:37.358Z,99.5
2023-12-12T00:14:43.438Z,99.5
2023-12-12T00:19:49.612Z,99.5
2023-12-12T00:24:55.591Z,99.5
2023-12-12T00:30:01.732Z,99.5
2023-12-12T00:35:07.666Z,99.5
2023-12-12T00:45:19.931Z,99.5
2023-12-12T00:50:25.997Z,99.5
2023-12-12T00:55:32.070Z,99.5
2023-12-12T01:00:38.425Z,99.5
2023-12-12T01:05:43.259Z,99.5
2023-12-12T01:10:49.428Z,99.5
2023-12-12T01:15:55.510Z,99.5
2023-12-12T01:21:01.588Z,99.5
2023-12-12T01:31:13.785Z,99.5
2023-12-12T01:36:18.970Z,99.5
2023-12-12T01:41:25.007Z,99.5
2023-12-12T01:46:31.064Z,99.5
2023-12-12T01:51:37.222Z,99.5
2023-12-12T01:56:43.220Z,99.5
2023-12-12T02:01:49.445Z,99.5
2023-12-12T02:06:55.409Z,99.5
2023-12-12T02:12:01.497Z,99.5
2023-12-12T02:17:07.609Z,99.5
2023-12-12T02:22:13.701Z,99.5
2023-12-12T02:27:19.857Z,99.5
2023-12-12T02:32:25.875Z,99.5
2023-12-12T02:37:32.008Z,99.5
2023-12-12T02:42:37.098Z,99.5
2023-12-12T02:47:43.193Z,99.5
2023-12-12T02:52:49.293Z,99.5
2023-12-12T02:57:55.386Z,99.5
2023-12-12T03:03:01.501Z,99.5
2023-12-12T03:08:07.584Z,99.5
2023-12-12T03:13:13.658Z,99.5
2023-12-12T03:18:19.782Z,99.5
2023-12-12T03:23:25.871Z,99.5
2023-12-12T03:28:31.965Z,99.5
2023-12-12T03:33:38.047Z,99.5
2023-12-12T03:38:44.146Z,99.5
2023-12-12T03:43:50.399Z,99.5
2023-12-12T03:48:55.432Z,99.5
2023-12-12T03:54:01.462Z,99.5
2023-12-12T03:59:07.550Z,99.5
2023-12-12T04:04:13.637Z,99.5
2023-12-12T04:09:19.732Z,99.5
2023-12-12T04:14:25.826Z,99.5
2023-12-12T04:19:31.936Z,99.5
2023-12-12T04:24:38.048Z,99.5
2023-12-12T04:29:44.124Z,99.5
2023-12-12T04:34:50.231Z,99.5
2023-12-12T04:39:56.333Z,99.5
2023-12-12T04:45:02.588Z,99.5
2023-12-12T04:50:08.528Z,99.5
2023-12-12T04:55:13.635Z,99.5
2023-12-12T05:00:19.750Z,99.5
2023-12-12T05:05:25.832Z,99.5
2023-12-12T05:10:31.921Z,99.5
2023-12-12T05:15:38.008Z,99.5
2023-12-12T05:20:44.229Z,99.5
2023-12-12T05:25:50.240Z,99.5
2023-12-12T05:30:56.317Z,99.5
2023-12-12T05:36:02.412Z,99.5
2023-12-12T05:41:08.578Z,99.5
2023-12-12T05:46:14.640Z,99.5
2023-12-12T05:51:20.839Z,99.5
2023-12-12T05:56:26.931Z,99.5
2023-12-12T06:01:32.894Z,99.5
2023-12-12T06:06:38.105Z,99.5
2023-12-12T06:11:44.157Z,99.5
2023-12-12T06:16:50.184Z,99.5
2023-12-12T06:21:56.323Z,99.5
2023-12-12T06:27:02.418Z,99.5
2023-12-12T06:32:08.489Z,99.5
2023-12-12T06:37:14.570Z,99.5
2023-12-12T06:42:20.759Z,99.5
2023-12-12T06:47:26.766Z,99.5
2023-12-12T06:52:32.875Z,99.5
2023-12-12T06:57:38.970Z,99.5
2023-12-12T07:02:45.119Z,99.5
2023-12-12T07:07:51.179Z,99.5
2023-12-12T07:12:56.399Z,99.5
2023-12-12T07:18:02.353Z,99.5
2023-12-12T07:23:08.486Z,99.5
2023-12-12T07:28:14.548Z,99.5
2023-12-12T07:33:20.694Z,99.5
2023-12-12T07:38:26.931Z,99.5
2023-12-12T07:43:32.980Z,99.5
2023-12-12T07:48:39.027Z,99.5
2023-12-12T07:53:45.060Z,99.5
2023-12-12T07:58:51.136Z,99.5
2023-12-12T08:03:57.393Z,99.5
2023-12-12T08:09:03.314Z,99.5
2023-12-12T08:14:09.503Z,99.5
2023-12-12T08:19:14.537Z,99.5
2023-12-12T08:24:20.726Z,99.5
2023-12-12T08:29:26.853Z,99.5
2023-12-12T08:34:32.843Z,99.5
2023-12-12T08:39:39.092Z,99.5
2023-12-12T08:44:45.027Z,99.5
2023-12-12T08:49:51.240Z,99.5
2023-12-12T08:54:57.475Z,99.5
2023-12-12T09:05:09.552Z,99.5
2023-12-12T09:10:15.577Z,99.5
2023-12-12T09:15:21.587Z,99.5
2023-12-12T09:20:27.867Z,99.5
2023-12-12T09:25:32.795Z,98.5
2023-12-12T09:30:38.973Z,98.5
2023-12-12T09:35:45.032Z,97
2023-12-12T09:40:51.092Z,96
2023-12-12T09:45:57.195Z,93
2023-12-12T09:51:03.275Z,91
2023-12-12T09:56:09.397Z,93
2023-12-12T10:01:15.489Z,92
2023-12-12T10:06:21.648Z,92.5
2023-12-12T10:11:27.774Z,91.5
2023-12-12T10:16:33.912Z,91.5
2023-12-12T10:21:40.081Z,90.5
2023-12-12T10:26:46.032Z,91
2023-12-12T10:31:51.057Z,90
2023-12-12T10:36:57.154Z,91
2023-12-12T10:42:03.245Z,92
2023-12-12T10:47:09.455Z,90.5
2023-12-12T10:52:15.492Z,91.5
2023-12-12T10:57:21.558Z,91.5
2023-12-12T11:02:27.736Z,91.5
2023-12-12T11:07:33.732Z,91.5
2023-12-12T11:12:39.917Z,92
2023-12-12T11:17:46.061Z,92
2023-12-12T11:22:52.096Z,92.5
2023-12-12T11:27:58.159Z,90.5
2023-12-12T11:33:04.334Z,90
2023-12-12T11:38:09.462Z,89.5
2023-12-12T11:43:15.407Z,89
2023-12-12T11:48:21.559Z,87
2023-12-12T11:53:27.755Z,87.5
2023-12-12T11:58:33.698Z,87.5
2023-12-12T12:03:39.827Z,88
2023-12-12T12:08:45.959Z,88.5
2023-12-12T12:13:52.198Z,89.5
2023-12-12T12:18:58.274Z,88
2023-12-12T12:24:04.172Z,87.5
2023-12-12T12:29:10.318Z,86
2023-12-12T12:34:16.449Z,84.5
2023-12-12T12:39:22.559Z,84
2023-12-12T12:44:27.611Z,83.5
2023-12-12T12:49:33.867Z,83.5
2023-12-12T12:54:39.750Z,83
2023-12-12T12:59:45.896Z,85
2023-12-12T13:04:51.985Z,83
2023-12-12T13:09:58.069Z,83.5
2023-12-12T13:15:04.370Z,80.5
2023-12-12T13:20:10.267Z,79
2023-12-12T13:25:16.370Z,78.5
2023-12-12T13:30:22.469Z,77.5
2023-12-12T13:35:28.594Z,78
2023-12-12T13:40:34.701Z,77.5
2023-12-12T13:45:40.838Z,76.5
2023-12-12T13:50:45.807Z,76.5
2023-12-12T13:55:51.906Z,78
2023-12-12T14:00:58.064Z,78.5
2023-12-12T14:06:04.097Z,80.5
2023-12-12T14:11:10.194Z,81
2023-12-12T14:16:16.288Z,83.5
2023-12-12T14:21:22.393Z,84.5
2023-12-12T14:26:28.507Z,86.5
2023-12-12T14:31:34.623Z,88
2023-12-12T14:36:40.672Z,89
2023-12-12T14:41:46.852Z,89
2023-12-12T14:46:53.029Z,90
2023-12-12T14:51:58.984Z,90.5
2023-12-12T14:57:04.227Z,91.5
2023-12-12T15:02:10.439Z,91.5
2023-12-12T15:07:16.433Z,91.5
2023-12-12T15:12:22.624Z,91
2023-12-12T15:17:28.467Z,90.5
2023-12-12T15:22:34.900Z,91
2023-12-12T15:27:40.687Z,91.5
2023-12-12T15:32:47.048Z,92.5
2023-12-12T15:37:52.850Z,91.5
2023-12-12T15:42:59.047Z,91.5
2023-12-12T15:48:05.041Z,91.5
2023-12-12T15:53:11.405Z,92
2023-12-12T15:58:17.232Z,91
2023-12-12T16:03:22.349Z,91
2023-12-12T16:08:28.447Z,91.5
2023-12-12T16:13:34.669Z,91
2023-12-12T16:18:40.624Z,91.5
2023-12-12T16:23:46.740Z,91.5
2023-12-12T16:28:52.840Z,92.5
2023-12-12T16:33:58.943Z,92
2023-12-12T16:39:05.037Z,92
2023-12-12T16:44:11.141Z,92.5
2023-12-12T16:49:17.329Z,92.5
2023-12-12T16:54:23.339Z,93
2023-12-12T16:59:29.406Z,93
2023-12-12T17:04:35.626Z,93
2023-12-12T17:09:40.797Z,93
2023-12-12T17:14:46.857Z,93
2023-12-12T17:19:52.873Z,93.5
2023-12-12T17:24:58.920Z,93.5
2023-12-12T17:30:05.125Z,93.5
2023-12-12T17:35:11.259Z,94
2023-12-12T17:40:17.327Z,94.5
2023-12-12T17:45:23.513Z,94.5
2023-12-12T17:50:29.409Z,95
2023-12-12T17:55:35.577Z,95
2023-12-12T18:00:41.628Z,95.5
2023-12-12T18:05:47.733Z,95.5
2023-12-12T18:10:53.774Z,95.5
2023-12-12T18:15:58.896Z,96
2023-12-12T18:21:04.993Z,96.5
2023-12-12T18:26:11.193Z,96.5
2023-12-12T18:31:17.198Z,96.5
2023-12-12T18:36:23.462Z,97
2023-12-12T18:41:28.473Z,97.5
2023-12-12T18:46:34.526Z,97.5
2023-12-12T18:51:40.669Z,97
2023-12-12T18:56:46.839Z,97
2023-12-12T19:01:52.889Z,97
2023-12-12T19:06:59.001Z,97
2023-12-12T19:12:04.974Z,97
2023-12-12T19:17:11.296Z,96.5
2023-12-12T19:27:23.313Z,96.5
2023-12-12T19:32:29.454Z,96.5
2023-12-12T19:37:35.495Z,96
2023-12-12T19:42:41.570Z,96
2023-12-12T19:47:46.682Z,95.5
2023-12-12T19:52:52.770Z,95.5
2023-12-12T19:57:58.903Z,95.5
2023-12-12T20:03:05.075Z,95.5
2023-12-12T20:08:11.206Z,95.5
2023-12-12T20:13:17.190Z,95.5
2023-12-12T20:18:23.294Z,95.5
2023-12-12T20:23:29.340Z,95.5
2023-12-12T20:28:35.448Z,95.5
2023-12-12T20:33:41.544Z,95.5
2023-12-12T20:38:47.662Z,95.5
2023-12-12T20:43:53.854Z,95
2023-12-12T20:48:59.830Z,95
2023-12-12T20:54:05.085Z,95.5
2023-12-12T20:59:11.054Z,95.5
2023-12-12T21:04:17.147Z,95.5
2023-12-12T21:09:23.314Z,95.5
2023-12-12T21:14:29.334Z,97
2023-12-12T21:19:35.420Z,98.5
2023-12-12T21:24:41.520Z,99.5
2023-12-12T21:29:47.714Z,99.5
2023-12-12T21:34:53.840Z,99.5
2023-12-12T21:39:59.880Z,99.5
2023-12-12T21:45:05.901Z,99.5
2023-12-12T21:50:12.009Z,99.5
2023-12-12T21:55:18.128Z,99.5
2023-12-12T22:00:23.237Z,99.5
2023-12-12T22:05:29.306Z,99.5
2023-12-12T22:10:35.405Z,99.5
2023-12-12T22:15:41.529Z,99.5
2023-12-12T22:20:47.641Z,99.5
2023-12-12T22:25:53.720Z,99.5
2023-12-12T22:30:59.797Z,99.5
2023-12-12T22:36:05.894Z,99.5
2023-12-12T22:41:12.032Z,99.5
2023-12-12T22:46:18.157Z,99.5
2023-12-12T22:51:24.228Z,99.5
2023-12-12T22:56:30.273Z,99.5
2023-12-12T23:01:36.368Z,99.5
2023-12-12T23:06:41.470Z,99.5
2023-12-12T23:11:47.581Z,99.5
2023-12-12T23:16:53.683Z,99.5
2023-12-12T23:21:59.947Z,99.5
2023-12-12T23:27:05.879Z,99.5
2023-12-12T23:32:11.957Z,99.5
2023-12-12T23:37:18.051Z,99.5
2023-12-12T23:42:24.168Z,99.5
2023-12-12T23:47:30.252Z,99.5
2023-12-12T23:52:36.360Z,99.5
2023-12-12T23:57:42.497Z,99.5
